wordpresstemporal.com alexa rank chart, wordpresstemporal.com alexa rank daily changes

wordpresstemporal.com alexa rank chart, wordpresstemporal.com alexa rank daily changes

wordpresstemporal.com
Actual rank:
111 266

RANK HISTORY

Date Rank Diff
2017/02/22 111 266 -2 415
2017/02/21 113 681 -2 155
2017/02/20 115 836 +86
2017/02/19 115 750 +48
2017/02/18 115 702 -1 216
2017/02/17 116 918 +1 711
2017/02/16 115 207 -1 165
2017/02/15 116 372 +1 638
2017/02/14 114 734 -2 004
2017/02/13 116 738 +1 453
2017/02/12 115 285 +999
2017/02/11 114 286 +775
2017/02/10 113 511 -700
2017/02/09 114 211 -499
2017/02/08 114 710 -1 836
2017/02/07 116 546 +2 822
2017/02/06 113 724 +2 710
2017/02/05 111 014 +275
2017/02/04 110 739 +901
2017/02/03 109 838 -3 431
2017/02/02 113 269 -2 510
2017/02/01 115 779 -1 757
2017/01/31 117 536 +204
2017/01/30 117 332 +308
2017/01/29 117 024 -849
2017/01/28 117 873 -2 148
2017/01/27 120 021 -3 405
2017/01/26 123 426 -2 248
2017/01/25 125 674 +2 324
2017/01/24 123 350 -835
2017/01/23 124 185 +2 488
2017/01/22 121 697 +1 201
2017/01/21 120 496 +237
2017/01/20 120 259 -475
2017/01/19 120 734 -85
2017/01/18 120 819 +2 277
2017/01/17 118 542 -470
2017/01/16 119 012 +2 696
2017/01/15 116 316 -1 983
2017/01/14 118 299 +2 009
2017/01/13 116 290 -2 860
2017/01/12 119 150 -2 797
2017/01/11 121 947 -474
2017/01/10 122 421 -495
2017/01/09 122 916 -386
2017/01/08 123 302 +3 838
2017/01/07 119 464 -1 781
2017/01/06 121 245 -4 203
2017/01/05 125 448 -2 192
2017/01/04 127 640 +308
2017/01/03 127 332 +2 114
2017/01/02 125 218 +1 290
2017/01/01 123 928 -187
2016/12/31 124 115 +965
2016/12/30 123 150 -1 890
2016/12/29 125 040 +1 456
2016/12/28 123 584 +2 036
2016/12/27 121 548 +2 826
2016/12/26 118 722 +3 228
2016/12/25 115 494 -3 244
2016/12/24 118 738

WIDGET FOR YOUR SITE

DOMAINS WITH THE NEAREST RANK

Domain Rank
promods.net 111 261
blitzortung.org 111 262
rigol.com 111 263
maroccommerce.com 111 264
wpadvancedads.com 111 265
wordpresstemporal.com 111 266
wordunscrambler.com 111 267
windowspro.de 111 268
trovesaurus.com 111 269
xxx3tube.com 111 270
queness.com 111 271

DOMAINS WITH THE NEAREST RANK BY TLD .com

Domain Rank
china-mama.com 111 257
mapcustomizer.com 111 259
rigol.com 111 263
maroccommerce.com 111 264
wpadvancedads.com 111 265
wordpresstemporal.com 111 266
wordunscrambler.com 111 267
trovesaurus.com 111 269
xxx3tube.com 111 270
queness.com 111 271
guitarfetish.com 111 273